Center Tuftonboro, New Hampshire
Current Conditions -  °F | °C
As of 12:55 PM on Thursday 30 Oct 2014 (Local Time) from KLCI Reporting Station
Scattered Clouds Scattered Clouds  
Wind Chill: 54°   Ceiling: Unl
Heat Index: 54°   Visibility: 10mi
Dew Point: 36°   Wind: 6mph
Humidity: 51%   Direction: 300°WNW
Pressure: 29.9"   Gusts: NA
Location:  43.65°N, 71.25°W
Report Text: KLCI 301655Z AUTO 30005KT 10SM SCT037 12/02 A2990 RMK AO1
Loading
Personal Weather Stations






























Interactive Weather Map
Tropical Storm Tracking
New forecast layout! Learn more

10-Day Weather Forecast

Advertisements
Track Severe Weather on mobile